Time;durP1;ratioP1;P1;durP2;ratioP2;P2;SDS_P1;SDS_P2;PMS_P1;PMS_P2;Temp;Humidity;BMP_temperature;BMP_pressure;BME280_temperature;BME280_humidity;BME280_pressure;Samples;Min_cycle;Max_cycle;Signal;HPM_P1;HPM_P2
2021/09/06 00:00:34;;;;;;;;;;;;;;;5.85;89.89;99018.57;1708252;83;21035;-72
2021/09/06 00:03:02;;;;;;;;;;;;;;;5.86;89.73;99016.17;1707876;83;20133;-74
2021/09/06 00:05:27;;;;;;;;;;;;;;;5.84;89.69;99014.77;1707893;83;20170;-73
2021/09/06 00:07:53;;;;;;;;;;;;;;;5.80;89.20;99009.52;1708202;83;20158;-77
2021/09/06 00:10:35;;;;;;;;;;;;;;;5.76;89.49;99011.03;1708241;84;20171;-77
2021/09/06 00:13:01;;;;;;;;;;;;;;;5.74;89.04;99006.41;1708311;83;21034;-73
2021/09/06 00:15:27;;;;;;;;;;;;;;;5.64;89.38;99009.09;1707964;84;20132;-77
2021/09/06 00:17:53;;;;;;;;;;;;;;;5.57;89.37;99007.52;1708236;83;20158;-73
2021/09/06 00:20:20;;;;;;;;;;;;;;;5.54;89.04;99006.61;1708126;83;20143;-78
2021/09/06 00:22:46;;;;;;;;;;;;;;;5.52;88.69;99011.39;1709152;83;20419;-77
2021/09/06 00:25:11;;;;;;;;;;;;;;;5.47;88.53;99008.04;1716044;83;21064;-73
2021/09/06 00:27:37;;;;;;;;;;;;;;;5.35;88.99;99002.56;1716239;83;20167;-73
2021/09/06 00:30:04;;;;;;;;;;;;;;;5.29;88.98;98998.06;1716005;83;20273;-77
2021/09/06 00:32:30;;;;;;;;;;;;;;;5.26;88.23;99003.07;1716106;83;20518;-73
2021/09/06 00:34:56;;;;;;;;;;;;;;;5.22;89.82;98999.20;1716052;83;20261;-77
2021/09/06 00:37:21;;;;;;;;;;;;;;;5.23;90.86;99001.66;1716142;83;20775;-73
2021/09/06 00:39:48;;;;;;;;;;;;;;;5.24;91.33;99003.82;1715993;83;20202;-77
2021/09/06 00:42:14;;;;;;;;;;;;;;;5.29;91.03;99007.98;1716237;83;20191;-77
2021/09/06 00:44:41;;;;;;;;;;;;;;;5.30;90.72;99006.45;1716148;83;20164;-77
2021/09/06 00:47:07;;;;;;;;;;;;;;;5.32;91.05;99015.11;1716189;83;20424;-73
2021/09/06 00:49:32;;;;;;;;;;;;;;;5.30;91.05;99009.14;1716131;83;21254;-73
2021/09/06 00:51:58;;;;;;;;;;;;;;;5.37;90.55;99006.36;1716249;83;20229;-77
2021/09/06 00:54:24;;;;;;;;;;;;;;;5.37;90.04;99006.36;1716075;83;20217;-73
2021/09/06 00:56:50;;;;;;;;;;;;;;;5.38;89.51;99008.00;1716187;83;20666;-73
2021/09/06 00:59:15;;;;;;;;;;;;;;;5.33;89.37;99012.72;1716124;83;20273;-73
2021/09/06 01:01:41;;;;;;;;;;;;;;;5.28;89.26;99007.69;1716254;83;21089;-73
2021/09/06 01:04:07;;;;;;;;;;;;;;;5.25;89.21;99005.46;1715939;83;20166;-73
2021/09/06 01:06:32;;;;;;;;;;;;;;;5.19;89.43;99011.70;1716253;83;20217;-73
2021/09/06 01:08:58;;;;;;;;;;;;;;;5.14;89.26;99002.98;1716038;83;20130;-73
2021/09/06 01:11:24;;;;;;;;;;;;;;;5.10;89.32;99006.61;1716287;83;20202;-77
2021/09/06 01:13:50;;;;;;;;;;;;;;;5.01;89.85;99002.56;1716091;83;21214;-77
2021/09/06 01:16:16;;;;;;;;;;;;;;;4.99;89.32;99006.00;1716171;83;20246;-72
2021/09/06 01:18:42;;;;;;;;;;;;;;;4.96;90.18;99001.08;1715906;83;20140;-72
2021/09/06 01:21:08;;;;;;;;;;;;;;;4.95;89.50;99000.74;1716223;83;20174;-73
2021/09/06 01:23:33;;;;;;;;;;;;;;;4.85;89.97;98998.25;1714745;83;20257;-73
2021/09/06 01:25:59;;;;;;;;;;;;;;;4.78;90.45;98996.95;1712632;83;21148;-77
2021/09/06 01:28:25;;;;;;;;;;;;;;;4.78;90.40;99006.36;1712236;84;20170;-77
2021/09/06 01:30:51;;;;;;;;;;;;;;;4.72;90.61;99001.36;1712556;83;20198;-74
2021/09/06 01:33:17;;;;;;;;;;;;;;;4.73;89.58;99003.52;1712323;83;20406;-77
2021/09/06 01:35:44;;;;;;;;;;;;;;;4.68;90.07;98990.73;1712543;84;20214;-77
2021/09/06 01:38:10;;;;;;;;;;;;;;;4.63;90.04;98994.61;1712289;84;21223;-72
2021/09/06 01:40:36;;;;;;;;;;;;;;;4.62;90.60;98992.97;1712584;84;20166;-74
2021/09/06 01:43:02;;;;;;;;;;;;;;;4.67;90.61;98996.33;1712394;84;20258;-77
2021/09/06 01:45:28;;;;;;;;;;;;;;;4.65;91.15;98989.02;1712192;83;20182;-77
2021/09/06 01:47:53;;;;;;;;;;;;;;;4.67;90.39;99000.36;1712388;84;20579;-73
2021/09/06 01:50:19;;;;;;;;;;;;;;;4.66;90.61;98993.34;1712217;83;22033;-77
2021/09/06 01:52:45;;;;;;;;;;;;;;;4.70;90.36;98998.56;1712354;83;20182;-77
2021/09/06 01:55:11;;;;;;;;;;;;;;;4.75;90.16;99004.12;1712254;84;20204;-73
2021/09/06 01:57:37;;;;;;;;;;;;;;;4.81;90.45;99008.11;1712357;84;20150;-73
2021/09/06 02:00:04;;;;;;;;;;;;;;;4.84;89.65;99008.17;1712302;83;20158;-77
2021/09/06 02:02:30;;;;;;;;;;;;;;;4.81;89.38;99004.08;1712446;84;22046;-73
2021/09/06 02:04:55;;;;;;;;;;;;;;;4.80;89.41;99009.15;1726188;83;20758;-77
2021/09/06 02:07:21;;;;;;;;;;;;;;;4.79;89.18;99010.72;1726207;83;20275;-72
2021/09/06 02:09:47;;;;;;;;;;;;;;;4.79;89.10;99011.53;1712284;84;20155;-77
2021/09/06 02:12:13;;;;;;;;;;;;;;;4.80;88.66;99005.64;1712417;84;20151;-77
2021/09/06 02:14:38;;;;;;;;;;;;;;;4.80;88.42;99011.02;1712328;83;21861;-77
2021/09/06 02:17:04;;;;;;;;;;;;;;;4.74;88.91;99011.36;1712470;83;20362;-77
2021/09/06 02:19:30;;;;;;;;;;;;;;;4.71;89.03;99004.27;1712141;84;20706;-77
2021/09/06 02:21:56;;;;;;;;;;;;;;;4.68;88.71;99011.39;1712535;84;20190;-72
2021/09/06 02:24:23;;;;;;;;;;;;;;;4.66;89.22;99002.74;1709868;83;20199;-77
2021/09/06 02:26:49;;;;;;;;;;;;;;;4.63;89.30;99005.35;1708247;83;21831;-73
2021/09/06 02:29:15;;;;;;;;;;;;;;;4.60;89.68;99003.08;1707817;84;20209;-77
2021/09/06 02:31:41;;;;;;;;;;;;;;;4.62;88.67;99004.23;1708268;83;20253;-73
2021/09/06 02:34:06;;;;;;;;;;;;;;;4.49;89.84;98995.73;1707907;83;20207;-73
2021/09/06 02:36:33;;;;;;;;;;;;;;;4.45;89.74;99001.24;1708307;83;20174;-77
2021/09/06 02:38:58;;;;;;;;;;;;;;;4.41;90.76;99000.84;1708017;84;21003;-77
2021/09/06 02:41:24;;;;;;;;;;;;;;;4.40;90.39;99003.74;1708340;83;20242;-77
2021/09/06 02:43:50;;;;;;;;;;;;;;;4.34;90.88;98999.23;1707942;83;20186;-77
2021/09/06 02:46:16;;;;;;;;;;;;;;;4.34;89.96;99011.30;1708358;84;20230;-73
2021/09/06 02:48:41;;;;;;;;;;;;;;;4.31;90.02;99004.52;1707994;84;20159;-77
2021/09/06 02:51:07;;;;;;;;;;;;;;;4.27;90.78;99007.30;1708287;83;21104;-77
2021/09/06 02:53:33;;;;;;;;;;;;;;;4.24;89.90;99011.25;1707919;83;20162;-77
2021/09/06 02:55:59;;;;;;;;;;;;;;;4.13;91.19;99010.59;1708167;83;20194;-73
2021/09/06 02:58:25;;;;;;;;;;;;;;;4.05;91.49;99013.52;1707854;83;20463;-77
2021/09/06 03:00:51;;;;;;;;;;;;;;;4.03;91.50;99014.78;1708173;83;20206;-73
2021/09/06 03:03:18;;;;;;;;;;;;;;;3.96;92.02;99012.94;1708079;83;21153;-72
2021/09/06 03:05:43;;;;;;;;;;;;;;;3.99;91.95;99007.66;1708160;83;20136;-73
2021/09/06 03:08:09;;;;;;;;;;;;;;;4.02;91.01;99011.28;1707981;83;20218;-72
2021/09/06 03:10:35;;;;;;;;;;;;;;;3.98;90.69;99002.52;1708180;83;20229;-76
2021/09/06 03:13:01;;;;;;;;;;;;;;;3.93;90.34;98999.97;1708119;83;20206;-73
2021/09/06 03:15:26;;;;;;;;;;;;;;;3.88;90.03;99005.66;1707826;83;21856;-77
2021/09/06 03:17:52;;;;;;;;;;;;;;;3.86;89.80;99003.71;1708017;83;20198;-77
2021/09/06 03:20:18;;;;;;;;;;;;;;;3.84;90.23;99001.73;1707858;83;20274;-73
2021/09/06 03:22:44;;;;;;;;;;;;;;;3.80;90.44;99002.69;1708083;84;20598;-77
2021/09/06 03:25:10;;;;;;;;;;;;;;;3.82;89.63;98999.80;1713715;83;20186;-73
2021/09/06 03:27:36;;;;;;;;;;;;;;;3.83;90.07;98997.41;1716118;83;20708;-77
2021/09/06 03:30:01;;;;;;;;;;;;;;;3.84;89.98;98999.05;1715841;83;20221;-72
2021/09/06 03:32:27;;;;;;;;;;;;;;;3.85;90.22;98996.19;1716128;83;20213;-77
2021/09/06 03:34:53;;;;;;;;;;;;;;;3.92;89.94;98994.27;1715684;83;20162;-77
2021/09/06 03:37:18;;;;;;;;;;;;;;;3.98;90.93;99002.00;1716136;83;20150;-73
2021/09/06 03:39:44;;;;;;;;;;;;;;;4.03;90.22;99002.71;1715826;83;21061;-72
2021/09/06 03:42:10;;;;;;;;;;;;;;;4.05;90.43;99000.63;1697683;83;20189;-73
2021/09/06 03:44:36;;;;;;;;;;;;;;;4.04;90.44;99003.84;1715742;83;20182;-72
2021/09/06 03:47:02;;;;;;;;;;;;;;;4.01;89.80;98997.53;1697626;83;20191;-72
2021/09/06 03:49:27;;;;;;;;;;;;;;;3.99;90.39;99001.48;1715706;83;20156;-72
2021/09/06 03:51:53;;;;;;;;;;;;;;;3.97;89.78;99000.36;1716197;83;21169;-77
2021/09/06 03:54:19;;;;;;;;;;;;;;;3.97;89.63;98993.65;1715716;83;20170;-72
2021/09/06 03:56:45;;;;;;;;;;;;;;;3.98;89.29;98998.49;1716121;83;20702;-77
2021/09/06 03:59:11;;;;;;;;;;;;;;;3.94;89.84;99003.47;1715777;83;20166;-73
2021/09/06 04:01:36;;;;;;;;;;;;;;;3.95;89.88;99003.77;1716069;83;20217;-77
2021/09/06 04:04:02;;;;;;;;;;;;;;;3.95;89.81;98998.41;1721460;83;21002;-77
2021/09/06 04:06:28;;;;;;;;;;;;;;;3.94;90.01;99008.84;1715948;83;20187;-77
2021/09/06 04:08:54;;;;;;;;;;;;;;;3.91;90.08;99003.88;1715939;83;20194;-73
2021/09/06 04:11:20;;;;;;;;;;;;;;;3.90;89.97;99006.26;1716087;83;20178;-73
2021/09/06 04:13:45;;;;;;;;;;;;;;;3.88;89.92;99001.11;1715847;83;20241;-72
2021/09/06 04:16:11;;;;;;;;;;;;;;;3.83;89.58;99009.48;1715969;83;21871;-73
2021/09/06 04:18:37;;;;;;;;;;;;;;;3.78;89.60;99003.95;1715818;83;20190;-72
2021/09/06 04:21:04;;;;;;;;;;;;;;;3.75;89.21;99009.19;1716019;83;20220;-77
2021/09/06 04:23:30;;;;;;;;;;;;;;;3.64;89.83;99008.00;1715858;83;20096;-73
2021/09/06 04:25:56;;;;;;;;;;;;;;;3.59;89.85;99014.53;1712295;83;20210;-72
2021/09/06 04:28:22;;;;;;;;;;;;;;;3.57;89.52;99017.09;1712130;83;21208;-77
2021/09/06 04:30:47;;;;;;;;;;;;;;;3.51;89.48;99021.97;1712596;83;20249;-72
2021/09/06 04:33:13;;;;;;;;;;;;;;;3.44;90.22;99021.16;1712323;83;20182;-77
2021/09/06 04:35:39;;;;;;;;;;;;;;;3.42;90.36;99022.71;1712516;83;20268;-77
2021/09/06 04:38:05;;;;;;;;;;;;;;;3.43;91.02;99023.53;1712454;84;20213;-76
2021/09/06 04:40:30;;;;;;;;;;;;;;;3.45;90.87;99022.80;1712143;83;21099;-77
2021/09/06 04:42:56;;;;;;;;;;;;;;;3.50;90.88;99025.14;1712492;83;20237;-73
2021/09/06 04:45:23;;;;;;;;;;;;;;;3.55;90.35;99027.20;1712203;83;20194;-72
2021/09/06 04:47:48;;;;;;;;;;;;;;;3.58;89.99;99023.58;1712406;84;20420;-73
2021/09/06 04:50:14;;;;;;;;;;;;;;;3.60;90.57;99026.89;1712140;84;20285;-77
2021/09/06 04:52:40;;;;;;;;;;;;;;;3.62;90.77;99019.97;1712468;83;21093;-77
2021/09/06 04:55:06;;;;;;;;;;;;;;;3.74;90.53;99029.52;1712309;83;20217;-73
2021/09/06 04:57:32;;;;;;;;;;;;;;;3.84;90.52;99028.55;1726370;83;20141;-77
2021/09/06 04:59:57;;;;;;;;;;;;;;;3.91;90.72;99025.33;1712338;84;20151;-77
2021/09/06 05:02:23;;;;;;;;;;;;;;;4.01;89.76;99031.06;1712575;84;20171;-77
2021/09/06 05:04:49;;;;;;;;;;;;;;;4.11;90.31;99031.45;1712354;84;21075;-76
2021/09/06 05:07:15;;;;;;;;;;;;;;;4.20;90.14;99032.86;1712587;84;20158;-77
2021/09/06 05:09:40;;;;;;;;;;;;;;;4.30;89.91;99035.07;1712393;84;20202;-73
2021/09/06 05:12:06;;;;;;;;;;;;;;;4.36;90.55;99032.88;1702511;84;20146;-73
2021/09/06 05:14:32;;;;;;;;;;;;;;;4.44;90.15;99039.34;1712422;83;20231;-72
2021/09/06 05:16:58;;;;;;;;;;;;;;;4.53;89.68;99038.56;1712739;83;21146;-77
2021/09/06 05:19:23;;;;;;;;;;;;;;;4.61;90.33;99042.30;1712417;83;20258;-77
2021/09/06 05:21:49;;;;;;;;;;;;;;;4.71;90.20;99036.48;1712694;84;20218;-73
2021/09/06 05:24:15;;;;;;;;;;;;;;;4.85;89.99;99043.39;1712697;83;20226;-77
2021/09/06 05:26:41;;;;;;;;;;;;;;;4.90;89.19;99046.78;1716176;83;20744;-77
2021/09/06 05:29:07;;;;;;;;;;;;;;;4.98;89.13;99043.83;1715879;83;21803;-77
2021/09/06 05:31:32;;;;;;;;;;;;;;;5.04;89.31;99041.09;1716140;83;20420;-74
2021/09/06 05:33:58;;;;;;;;;;;;;;;5.19;88.96;99046.64;1715982;83;20694;-78
2021/09/06 05:36:24;;;;;;;;;;;;;;;5.29;89.09;99046.44;1716120;83;20225;-77
2021/09/06 05:38:51;;;;;;;;;;;;;;;5.55;89.26;99040.51;1715998;83;20202;-77
2021/09/06 05:41:19;;;;;;;;;;;;;;;5.92;89.66;99038.70;1716096;83;21274;-77
2021/09/06 05:43:44;;;;;;;;;;;;;;;6.15;88.52;99031.27;1715953;83;20451;-77
2021/09/06 05:46:10;;;;;;;;;;;;;;;6.35;88.10;99030.51;1716158;83;20217;-77
2021/09/06 05:48:35;;;;;;;;;;;;;;;6.61;87.78;99030.66;1715928;83;20182;-77
2021/09/06 05:51:01;;;;;;;;;;;;;;;6.86;87.97;99024.29;1716192;83;20218;-74
2021/09/06 05:53:27;;;;;;;;;;;;;;;7.02;87.57;99024.97;1715973;83;21135;-77
2021/09/06 05:55:53;;;;;;;;;;;;;;;7.13;87.10;99025.50;1716129;83;20213;-74
2021/09/06 05:58:18;;;;;;;;;;;;;;;7.24;86.87;99017.94;1716049;83;20217;-77
2021/09/06 06:00:44;;;;;;;;;;;;;;;7.23;86.43;99020.88;1716286;83;20158;-75
2021/09/06 06:03:10;;;;;;;;;;;;;;;7.35;86.51;99017.67;1716001;83;20155;-77
2021/09/06 06:05:36;;;;;;;;;;;;;;;7.50;86.70;99018.53;1715894;83;21087;-77
2021/09/06 06:08:02;;;;;;;;;;;;;;;7.60;85.81;99018.22;1715981;83;20249;-75
2021/09/06 06:10:27;;;;;;;;;;;;;;;7.74;85.90;99014.75;1715779;83;20230;-77
2021/09/06 06:12:53;;;;;;;;;;;;;;;7.88;86.31;99017.50;1715913;83;20285;-78
2021/09/06 06:15:19;;;;;;;;;;;;;;;8.07;85.63;99016.80;1715885;83;20174;-78
2021/09/06 06:17:45;;;;;;;;;;;;;;;8.43;84.34;99016.17;1716153;83;21091;-78
2021/09/06 06:20:12;;;;;;;;;;;;;;;8.80;83.69;99016.56;1715705;83;20158;-73
2021/09/06 06:22:37;;;;;;;;;;;;;;;9.25;83.00;99017.87;1716099;83;20156;-77
2021/09/06 06:25:04;;;;;;;;;;;;;;;9.72;81.24;99012.59;1715690;83;20536;-78
2021/09/06 06:27:29;;;;;;;;;;;;;;;9.97;79.98;99011.56;1716045;83;20156;-74
2021/09/06 06:29:55;;;;;;;;;;;;;;;10.21;82.44;99012.14;1715836;83;21906;-74
2021/09/06 06:32:21;;;;;;;;;;;;;;;10.35;82.31;99005.30;1716004;83;20290;-74
2021/09/06 06:34:47;;;;;;;;;;;;;;;10.61;80.52;99013.70;1715870;83;20272;-78
2021/09/06 06:37:12;;;;;;;;;;;;;;;10.71;77.35;99011.08;1716215;83;20146;-74
2021/09/06 06:39:38;;;;;;;;;;;;;;;10.71;78.65;99009.73;1715917;83;20233;-74
2021/09/06 06:42:04;;;;;;;;;;;;;;;10.63;77.14;99016.42;1716159;83;21155;-74
2021/09/06 06:44:30;;;;;;;;;;;;;;;10.74;76.47;99011.91;1715793;83;20174;-74
2021/09/06 06:46:56;;;;;;;;;;;;;;;11.31;76.92;99016.75;1716074;83;20131;-78
2021/09/06 06:49:22;;;;;;;;;;;;;;;11.85;74.67;99011.95;1715864;83;20627;-74
2021/09/06 06:51:47;;;;;;;;;;;;;;;12.40;73.62;99010.56;1716173;83;20683;-74
2021/09/06 06:54:13;;;;;;;;;;;;;;;13.12;74.85;99015.56;1715835;83;21659;-78
2021/09/06 06:56:39;;;;;;;;;;;;;;;13.57;70.51;99014.46;1715981;83;20260;-75
2021/09/06 06:59:05;;;;;;;;;;;;;;;14.06;68.85;99017.34;1697484;83;20230;-78
2021/09/06 07:01:30;;;;;;;;;;;;;;;14.54;66.98;99014.43;1716053;83;20158;-78
2021/09/06 07:03:56;;;;;;;;;;;;;;;15.18;72.52;99013.98;1715995;83;20167;-75
2021/09/06 07:06:22;;;;;;;;;;;;;;;15.42;68.22;99014.05;1716142;83;21162;-78
2021/09/06 07:08:48;;;;;;;;;;;;;;;15.56;68.08;99015.57;1715903;83;20158;-78
2021/09/06 07:11:13;;;;;;;;;;;;;;;15.73;65.07;99017.34;1716207;83;20212;-75
2021/09/06 07:13:39;;;;;;;;;;;;;;;16.34;64.20;99024.28;1716060;83;20138;-75
2021/09/06 07:16:05;;;;;;;;;;;;;;;16.53;63.68;99022.94;1716149;83;20154;-75
2021/09/06 07:18:31;;;;;;;;;;;;;;;17.15;62.00;99027.79;1716056;83;21085;-79
2021/09/06 07:20:56;;;;;;;;;;;;;;;17.03;56.66;99025.27;1715800;83;20825;-79
2021/09/06 07:23:22;;;;;;;;;;;;;;;17.79;60.65;99028.67;1715943;83;20197;-79
2021/09/06 07:25:48;;;;;;;;;;;;;;;18.42;60.34;99030.70;1713751;83;20186;-79
2021/09/06 07:28:13;;;;;;;;;;;;;;;18.84;59.69;99039.15;1712463;84;20198;-75
2021/09/06 07:30:39;;;;;;;;;;;;;;;19.41;52.81;99031.20;1712221;83;21156;-79
2021/09/06 07:33:06;;;;;;;;;;;;;;;20.06;54.01;99027.03;1712445;84;20167;-75
2021/09/06 07:35:33;;;;;;;;;;;;;;;20.33;47.08;99032.87;1725782;83;20445;-79
2021/09/06 07:37:59;;;;;;;;;;;;;;;20.86;49.93;99028.57;1712393;84;20223;-75
2021/09/06 07:40:25;;;;;;;;;;;;;;;21.09;44.52;99027.26;1712220;84;20140;-75
2021/09/06 07:42:51;;;;;;;;;;;;;;;21.59;45.26;99025.94;1712507;83;21092;-77
2021/09/06 07:45:16;;;;;;;;;;;;;;;22.22;54.68;99020.16;1712051;84;20221;-80
2021/09/06 07:47:42;;;;;;;;;;;;;;;22.29;48.08;99021.80;1712501;84;20186;-80
2021/09/06 07:50:10;;;;;;;;;;;;;;;22.31;40.59;99020.92;1712217;83;20214;-80
2021/09/06 07:52:36;;;;;;;;;;;;;;;22.49;38.97;99027.16;1712527;83;20140;-80
2021/09/06 07:55:03;;;;;;;;;;;;;;;23.39;41.37;99021.69;1712164;84;21018;-80
2021/09/06 07:57:29;;;;;;;;;;;;;;;24.00;45.36;99018.51;1712336;84;20160;-80
2021/09/06 07:59:54;;;;;;;;;;;;;;;23.87;38.38;99021.85;1712184;84;20182;-75
2021/09/06 08:02:20;;;;;;;;;;;;;;;24.75;42.48;99021.75;1712408;83;20131;-75
2021/09/06 08:04:46;;;;;;;;;;;;;;;25.18;39.81;99019.47;1712258;84;20183;-80
2021/09/06 08:07:12;;;;;;;;;;;;;;;25.38;37.99;99014.88;1712567;83;21160;-80
2021/09/06 08:09:38;;;;;;;;;;;;;;;26.22;44.47;99014.14;1712149;84;20170;-75
2021/09/06 08:12:04;;;;;;;;;;;;;;;25.25;32.81;99013.55;1712548;84;20185;-75
2021/09/06 08:14:30;;;;;;;;;;;;;;;25.91;32.60;99010.80;1712147;84;20148;-80
2021/09/06 08:16:56;;;;;;;;;;;;;;;25.66;29.69;99017.64;1712501;83;20147;-80
2021/09/06 08:19:22;;;;;;;;;;;;;;;26.33;32.19;99013.84;1712234;84;21061;-80
2021/09/06 08:21:47;;;;;;;;;;;;;;;26.83;31.05;99013.59;1712471;84;20245;-76
2021/09/06 08:24:14;;;;;;;;;;;;;;;26.96;28.19;99015.09;1712149;84;20178;-80
2021/09/06 08:26:40;;;;;;;;;;;;;;;27.46;28.28;99016.15;1712314;84;20132;-81
2021/09/06 08:29:06;;;;;;;;;;;;;;;28.82;33.72;99007.31;1712452;84;20144;-76
2021/09/06 08:31:31;;;;;;;;;;;;;;;28.73;32.50;99011.78;1712502;84;21069;-75
2021/09/06 08:33:58;;;;;;;;;;;;;;;29.21;28.09;99010.03;1712363;84;20162;-75
2021/09/06 08:36:24;;;;;;;;;;;;;;;28.47;25.67;99020.16;1712461;84;20115;-75
2021/09/06 08:38:49;;;;;;;;;;;;;;;28.07;25.06;99022.84;1712390;84;20205;-80
2021/09/06 08:41:15;;;;;;;;;;;;;;;28.87;26.95;99022.31;1712318;84;20190;-78
2021/09/06 08:43:41;;;;;;;;;;;;;;;29.63;25.94;99020.70;1712465;84;21166;-80
2021/09/06 08:46:07;;;;;;;;;;;;;;;29.75;24.60;99028.83;1712318;83;20177;-80
2021/09/06 08:48:32;;;;;;;;;;;;;;;30.14;23.54;99027.02;1712450;83;20285;-75
2021/09/06 08:50:58;;;;;;;;;;;;;;;29.78;21.77;99028.05;1712275;84;20178;-80
2021/09/06 08:53:24;;;;;;;;;;;;;;;30.87;23.52;99028.78;1712570;84;20209;-75
2021/09/06 08:55:50;;;;;;;;;;;;;;;31.32;26.53;99023.82;1712301;83;21160;-81
2021/09/06 08:58:16;;;;;;;;;;;;;;;31.58;27.33;99024.10;1712493;83;20233;-80
2021/09/06 09:00:44;;;;;;;;;;;;;;;30.28;20.13;99025.16;1712381;83;20140;-81
2021/09/06 09:03:13;;;;;;;;;;;;;;;30.53;20.01;99023.14;1712543;83;20473;-80
2021/09/06 09:05:39;;;;;;;;;;;;;;;29.51;21.72;99022.38;1712348;83;20152;-75
2021/09/06 09:08:05;;;;;;;;;;;;;;;29.83;20.22;99022.13;1726466;83;21070;-80
2021/09/06 09:10:32;;;;;;;;;;;;;;;30.15;20.38;99019.64;1712269;83;20261;-80
2021/09/06 09:13:08;;;;;;;;;;;;;;;31.48;20.38;99016.48;1712525;83;20144;-81
2021/09/06 09:15:35;;;;;;;;;;;;;;;30.69;20.61;99020.09;1712618;83;20155;-76
2021/09/06 09:18:01;;;;;;;;;;;;;;;28.82;25.94;99019.86;1712573;83;20135;-81
2021/09/06 09:20:42;;;;;;;;;;;;;;;26.20;25.55;99024.81;1712324;83;21178;-79
2021/09/06 09:23:09;;;;;;;;;;;;;;;25.40;28.84;99028.63;1712631;83;20128;-80
2021/09/06 09:25:34;;;;;;;;;;;;;;;23.73;28.83;99022.73;1712442;84;20157;-75
2021/09/06 09:28:00;;;;;;;;;;;;;;;22.83;31.10;99021.98;1712584;84;20146;-75
2021/09/06 09:30:31;;;;;;;;;;;;;;;22.18;32.15;99020.57;1712246;83;20213;-78
2021/09/06 09:33:09;;;;;;;;;;;;;;;21.89;32.46;99024.89;1712582;84;21629;-78
2021/09/06 09:35:35;;;;;;;;;;;;;;;21.35;33.04;99018.19;1712209;83;20419;-79
2021/09/06 09:38:06;;;;;;;;;;;;;;;20.73;34.27;99022.62;1712576;83;20186;-75
2021/09/06 09:40:37;;;;;;;;;;;;;;;20.38;34.92;99021.73;1712085;83;20510;-80
2021/09/06 09:43:03;;;;;;;;;;;;;;;20.02;36.54;99020.56;1712533;83;20459;-74
2021/09/06 09:45:29;;;;;;;;;;;;;;;19.71;36.59;99016.69;1712362;83;21133;-75
2021/09/06 09:47:56;;;;;;;;;;;;;;;19.56;35.88;99015.70;1712425;84;20162;-74
2021/09/06 09:50:22;;;;;;;;;;;;;;;19.43;35.41;99017.95;1712239;84;20459;-75
2021/09/06 09:52:50;;;;;;;;;;;;;;;19.14;36.95;99015.09;1712312;84;20163;-79
2021/09/06 09:55:16;;;;;;;;;;;;;;;19.09;36.44;99012.46;1712317;84;20140;-74
2021/09/06 09:57:42;;;;;;;;;;;;;;;18.94;37.75;99009.27;1712451;84;21142;-74
2021/09/06 10:00:08;;;;;;;;;;;;;;;18.82;38.27;99005.70;1712134;84;20774;-79
2021/09/06 10:02:34;;;;;;;;;;;;;;;18.68;38.64;99005.73;1712459;84;20179;-74
2021/09/06 10:05:04;;;;;;;;;;;;;;;18.52;39.25;99005.22;1712267;83;20583;-79
2021/09/06 10:07:33;;;;;;;;;;;;;;;18.33;39.03;98999.88;1712460;83;20423;-74
2021/09/06 10:10:11;;;;;;;;;;;;;;;18.19;39.52;98996.88;1712138;83;21053;-74
2021/09/06 10:12:37;;;;;;;;;;;;;;;18.14;40.00;98990.95;1712459;83;20139;-74
2021/09/06 10:15:03;;;;;;;;;;;;;;;18.02;42.01;98994.19;1712261;83;20209;-79
2021/09/06 10:17:37;;;;;;;;;;;;;;;18.02;43.06;98998.30;1712513;83;20120;-79
2021/09/06 10:20:16;;;;;;;;;;;;;;;18.05;40.94;98991.42;1711656;83;20403;-79
2021/09/06 10:22:44;;;;;;;;;;;;;;;18.06;41.13;98991.67;1712507;84;21113;-77
2021/09/06 10:25:11;;;;;;;;;;;;;;;18.05;43.98;98990.05;1712194;84;20444;-79
2021/09/06 10:27:38;;;;;;;;;;;;;;;18.13;42.68;98991.27;1715681;83;20419;-80
2021/09/06 10:30:10;;;;;;;;;;;;;;;18.11;42.66;98989.37;1712737;83;20447;-79
2021/09/06 10:32:42;;;;;;;;;;;;;;;18.17;42.67;98988.96;1716090;83;20100;-79
2021/09/06 10:35:14;;;;;;;;;;;;;;;18.17;42.26;98988.16;1715657;83;21032;-79
2021/09/06 10:37:40;;;;;;;;;;;;;;;18.21;43.44;98985.06;1715608;83;20155;-74
2021/09/06 10:40:10;;;;;;;;;;;;;;;18.28;43.90;98986.25;1715795;83;20156;-79
2021/09/06 10:42:37;;;;;;;;;;;;;;;18.32;43.49;98987.84;1716091;83;20132;-79
2021/09/06 10:45:04;;;;;;;;;;;;;;;18.39;43.30;98986.05;1715867;83;20144;-79
2021/09/06 10:47:37;;;;;;;;;;;;;;;18.45;41.41;98984.80;1716112;83;21061;-74
2021/09/06 10:50:19;;;;;;;;;;;;;;;18.49;42.58;98981.71;1715787;83;20132;-74
2021/09/06 10:52:46;;;;;;;;;;;;;;;18.42;42.38;98979.37;1716113;83;20135;-80
2021/09/06 10:55:12;;;;;;;;;;;;;;;18.36;42.86;98979.23;1715777;83;20116;-74
2021/09/06 10:57:38;;;;;;;;;;;;;;;18.18;42.99;98974.69;1716113;83;20403;-80
2021/09/06 11:00:05;;;;;;;;;;;;;;;18.21;43.24;98972.72;1715865;83;22005;-79
2021/09/06 11:02:31;;;;;;;;;;;;;;;18.26;43.62;98977.52;1715722;83;20427;-79
2021/09/06 11:04:57;;;;;;;;;;;;;;;18.32;44.20;98973.56;1716006;83;20273;-74
2021/09/06 11:07:22;;;;;;;;;;;;;;;18.29;44.42;98976.93;1716103;83;20213;-74
2021/09/06 11:09:48;;;;;;;;;;;;;;;18.28;44.35;98971.16;1715951;83;20147;-80
2021/09/06 11:12:14;;;;;;;;;;;;;;;18.32;44.17;98968.07;1716025;83;21143;-80
2021/09/06 11:14:44;;;;;;;;;;;;;;;18.37;43.49;98970.44;1715895;83;20166;-74
2021/09/06 11:17:22;;;;;;;;;;;;;;;18.35;42.80;98973.49;1715979;83;20199;-79
2021/09/06 11:19:49;;;;;;;;;;;;;;;18.35;43.57;98972.69;1715812;83;20452;-79
2021/09/06 11:22:16;;;;;;;;;;;;;;;18.35;44.33;98976.23;1716052;83;20140;-80
2021/09/06 11:24:43;;;;;;;;;;;;;;;18.27;45.08;98966.80;1715938;83;21129;-75
2021/09/06 11:27:23;;;;;;;;;;;;;;;18.30;45.08;98962.09;1710642;83;20124;-79
2021/09/06 11:29:49;;;;;;;;;;;;;;;18.33;45.68;98964.20;1707783;83;20132;-79
2021/09/06 11:32:14;;;;;;;;;;;;;;;18.41;46.13;98961.86;1707957;83;20158;-74
2021/09/06 11:34:40;;;;;;;;;;;;;;;18.45;45.09;98958.17;1708096;83;20143;-74
2021/09/06 11:37:08;;;;;;;;;;;;;;;18.50;44.54;98957.27;1707947;83;21083;-79
2021/09/06 11:39:35;;;;;;;;;;;;;;;18.50;44.56;98950.40;1703735;83;20192;-79
2021/09/06 11:42:02;;;;;;;;;;;;;;;18.52;45.78;98950.33;1696574;83;20140;-80
2021/09/06 11:44:27;;;;;;;;;;;;;;;18.60;46.00;98942.73;1683969;84;20532;-80
2021/09/06 11:46:53;;;;;;;;;;;;;;;18.70;45.62;98938.16;1702467;84;20679;-81
2021/09/06 11:49:19;;;;;;;;;;;;;;;18.71;45.85;98937.84;1697819;83;21882;-80
2021/09/06 11:51:45;;;;;;;;;;;;;;;18.77;46.44;98937.98;1698806;84;20222;-80
2021/09/06 11:54:12;;;;;;;;;;;;;;;18.82;46.40;98937.06;1721747;83;20144;-81
2021/09/06 11:56:38;;;;;;;;;;;;;;;18.92;45.80;98942.30;1707901;84;20125;-81
2021/09/06 11:59:04;;;;;;;;;;;;;;;18.84;44.32;98941.11;1680444;84;20206;-81
2021/09/06 12:01:29;;;;;;;;;;;;;;;18.79;45.50;98925.31;1698181;84;21753;-80
2021/09/06 12:04:08;;;;;;;;;;;;;;;18.86;46.16;98927.06;1707489;83;20435;-80
2021/09/06 12:06:37;;;;;;;;;;;;;;;18.88;45.91;98930.30;1707754;83;20180;-80
2021/09/06 12:09:02;;;;;;;;;;;;;;;18.95;46.24;98928.50;1708237;83;20401;-81
2021/09/06 12:11:34;;;;;;;;;;;;;;;19.00;45.97;98932.50;1707983;83;20282;-81
2021/09/06 12:14:01;;;;;;;;;;;;;;;18.99;46.51;98935.00;1704263;83;21919;-80
2021/09/06 12:16:28;;;;;;;;;;;;;;;18.94;45.07;98929.06;1679330;84;20481;-81
2021/09/06 12:18:54;;;;;;;;;;;;;;;18.94;45.86;98924.95;1702627;84;20188;-82
2021/09/06 12:21:21;;;;;;;;;;;;;;;19.01;45.83;98928.06;1707951;83;20136;-81
2021/09/06 12:23:49;;;;;;;;;;;;;;;19.07;45.47;98917.77;1707951;84;20435;-79
2021/09/06 12:26:16;;;;;;;;;;;;;;;19.01;45.17;98912.16;1707682;83;21185;-82
2021/09/06 12:28:58;;;;;;;;;;;;;;;19.07;46.32;98908.16;1697765;84;20148;-79
2021/09/06 12:31:24;;;;;;;;;;;;;;;19.14;46.43;98911.25;1707962;84;20163;-81
2021/09/06 12:33:50;;;;;;;;;;;;;;;19.16;46.26;98904.34;1708014;84;20483;-82
2021/09/06 12:36:16;;;;;;;;;;;;;;;19.24;46.00;98907.45;1707917;83;20439;-81
2021/09/06 12:38:42;;;;;;;;;;;;;;;19.29;45.83;98906.73;1708001;83;21949;-82
2021/09/06 12:41:08;;;;;;;;;;;;;;;19.30;46.51;98904.80;1707872;83;20355;-82
2021/09/06 12:43:33;;;;;;;;;;;;;;;19.26;45.66;98906.56;1707922;83;20335;-80
2021/09/06 12:45:59;;;;;;;;;;;;;;;19.32;46.05;98898.44;1707980;83;20147;-80
2021/09/06 12:48:29;;;;;;;;;;;;;;;19.30;46.50;98902.05;1702555;83;20228;-80